AirNav   Pilot Hours Calculator
 
 622 users online  

HL2 Hubbard Landing Seaplane Base
Stockton, Alabama, USA

GOING TO STOCKTON?


FAA INFORMATION EFFECTIVE 15 AUGUST 2019

Location

FAA Identifier: HL2
Lat/Long: 31-03-49.0000N 087-52-12.0000W
31-03.816667N 087-52.200000W
31.0636111,-87.8700000
(estimated)
Elevation: 8 ft. / 2 m (estimated)
From city: 5 miles SE of STOCKTON, AL
Time zone: UTC -5 (UTC -6 during Standard Time)
Zip code: 36579

Seaplane Base Operations

Seaplane Base use: Open to the public
Activation date: 01/2007
Control tower: no
ARTCC: HOUSTON CENTER
FSS: ANNISTON FLIGHT SERVICE STATION
NOTAMs facility: ANB (NOTAM-D service available)
Attendance: SR-SS
Segmented circle: no

Seaplane Base Communications

CTAF: 122.9

Nearby radio navigation aids

VOR radial/distance  VOR name  Freq  Var
BFMr015/28.7BROOKLEY VORTAC112.8004E
GCVr089/31.7GREENE COUNTY VORTAC115.7005E
SJIr046/32.3SEMMES VORTAC115.3005E
MVCr224/35.6MONROEVILLE VORTAC116.8004E

 
NDB name  Hdg/Dist  Freq  Var  ID
WISLE052/28.824801WMOB -- --- -...

Seaplane Base Services

Runway Information

Runway 16W/34W

Dimensions: 6000 x 300 ft. / 1829 x 91 m
Surface: water
RUNWAY 16W  RUNWAY 34W
Traffic pattern: leftleft

Seaplane Base Ownership and Management from official FAA records

Ownership: Privately-owned
Owner: PAUL L BRYARS, JR
9100 HUBBARDS LANDING ROAD
STOCKTON, AL 36579
Phone 251-937-5726
Manager: PAUL L. BRYARS JR.
9100 HUBBARD LANDING ROAD
STOCKTON, AL 36579
Phone 251-937-5726

Additional Remarks

TOUR BUOYS IN FRONT OF RAMP AREA.
FOR CD CTC HOUSTON ARTCC AT 281-230-5622.

Instrument Procedures

There are no published instrument procedures at HL2.

Some nearby airports with instrument procedures:

1R8 - Bay Minette Municipal Airport (12 nm S)
0R1 - Atmore Municipal Airport (22 nm E)
4R3 - Jackson Municipal Airport (24 nm N)
KBFM - Mobile Downtown Airport (28 nm S)
5R1 - Roy Wilcox Airport (29 nm NW)
 
Loc | Ops | Rwys | IFR | FBO | Links
Com | Nav | Svcs | Stats | Notes

Continental Motors
AirBoss

 
Area around HL2 (Hubbard Landing Seaplane Base)
 
Road maps at: MapQuest Bing Google
 
Aerial photo
No photo
 
Sectional chart

 
Airport distance calculator
Flying to Hubbard Landing Seaplane Base? Find the distance to fly.

From to HL2

Sunrise and sunset
Times for 18-Aug-2019
 Local
(UTC-5)
 Zulu
(UTC)
Morning civil twilight05:5510:55
Sunrise06:2011:20
Sunset19:3000:30
Evening civil twilight19:5600:56

Current date and time
Zulu (UTC)  19-Aug-2019 04:19:45
Local (UTC-5)  18-Aug-2019 23:19:45
 
METAR
KBFM 
29nm S 
190353Z AUTO 00000KT 10SM CLR 27/25 A3002 RMK AO2 SLP165 T02720250
KMOB 
30nm SW 
190356Z 22004KT 10SM CLR 26/24 A3001 RMK AO2 SLP157 T02560244
KCQF 
36nm S 
190355Z AUTO 00000KT 10SM CLR 27/25 A3001 RMK AO2
KGZH 
47nm NE 
190353Z AUTO 00000KT 10SM CLR 25/20 A3000 RMK AO2 SLP156 T02500200 TSNO
KJKA 
48nm S 
190355Z AUTO 25006KT 10SM CLR 28/25 A3001 RMK AO2 LTG DSNT E T02800248
KNSE 
49nm SE 
190356Z AUTO 23004KT 10SM CLR 26/24 A3000 RMK AO2 SLP143 T02610244 $
KNDZ 
49nm SE 
190356Z AUTO 00000KT 10SM CLR 26/24 A3000 RMK AO2 SLP143 T02610244 $
KPQL 
50nm SW 
190353Z AUTO 00000KT 10SM CLR 26/24 A2999 RMK AO2 SLP158 T02560239 TSNO
KPNS 
50nm SE 
190353Z 22009KT 10SM CLR 28/26 A3000 RMK AO2 SLP159 T02780256
TAF
KBFM 
29nm S 
181729Z 1818/1918 11008KT P6SM VCTS FEW030 BKN035CB BKN250 TEMPO 1818/1822 VRB15KT 3SM -TSRA BKN035CB BKN080 OVC200 FM190100 23003KT P6SM BKN050 BKN250 FM191500 04005KT P6SM VCSH SCT030 BKN040 BKN250
KMOB 
30nm SW 
181729Z 1818/1918 21007KT P6SM VCTS FEW030 BKN035CB BKN250 TEMPO 1818/1822 VRB15KT 3SM -TSRA BKN035CB BKN080 OVC200 FM190100 22003KT P6SM BKN050 BKN250 FM191500 34005KT P6SM VCSH SCT030 BKN040 BKN250
NOTAMs
Click for the latest NOTAMs
NOTAMs are issued by the DoD/FAA and will open in a separate window not controlled by AirNav.

 

 
 

Would you like to see your business listed on this page?

 If your business provides an interesting product or service to pilots, flight crews, aircraft, or users of the Hubbard Landing Seaplane Base, you should consider listing it here.  To start the listing process, click on the button below
 
Add a business
 

Other Pages about Hubbard Landing Seaplane Base

Update a link
 
Copyright © AirNav, LLC. All rights reserved. Privacy Policy  Contact